sensor_id;sensor_type;location;lat;lon;timestamp;temperature;humidity
69823;SHT31;57119;52.516;13.508;2022-09-09T00:02:19;14.00;99.99
69823;SHT31;57119;52.516;13.508;2022-09-09T00:05:17;14.05;99.99
69823;SHT31;57119;52.516;13.508;2022-09-09T00:07:49;13.86;99.99
69823;SHT31;57119;52.516;13.508;2022-09-09T00:10:27;13.82;99.99
69823;SHT31;57119;52.516;13.508;2022-09-09T00:15:22;13.98;99.99
69823;SHT31;57119;52.516;13.508;2022-09-09T00:20:45;14.12;99.99
69823;SHT31;57119;52.516;13.508;2022-09-09T00:28:27;13.85;99.99
69823;SHT31;57119;52.516;13.508;2022-09-09T00:30:55;13.78;99.99
69823;SHT31;57119;52.516;13.508;2022-09-09T00:33:24;13.83;99.99
69823;SHT31;57119;52.516;13.508;2022-09-09T00:35:53;13.86;99.99
69823;SHT31;57119;52.516;13.508;2022-09-09T00:40:58;13.96;99.99
69823;SHT31;57119;52.516;13.508;2022-09-09T00:43:29;13.89;99.99
69823;SHT31;57119;52.516;13.508;2022-09-09T00:46:09;13.89;99.99
69823;SHT31;57119;52.516;13.508;2022-09-09T00:48:58;13.92;99.99
69823;SHT31;57119;52.516;13.508;2022-09-09T00:51:30;13.90;99.99
69823;SHT31;57119;52.516;13.508;2022-09-09T00:59:47;13.99;99.99
69823;SHT31;57119;52.516;13.508;2022-09-09T01:02:21;14.02;99.99
69823;SHT31;57119;52.516;13.508;2022-09-09T01:04:50;13.95;99.99
69823;SHT31;57119;52.516;13.508;2022-09-09T01:07:19;13.93;99.99
69823;SHT31;57119;52.516;13.508;2022-09-09T01:09:51;13.86;99.99
69823;SHT31;57119;52.516;13.508;2022-09-09T01:12:24;13.86;99.99
69823;SHT31;57119;52.516;13.508;2022-09-09T01:15:17;13.69;99.99
69823;SHT31;57119;52.516;13.508;2022-09-09T01:20:21;13.48;99.99
69823;SHT31;57119;52.516;13.508;2022-09-09T01:28:11;13.35;99.99
69823;SHT31;57119;52.516;13.508;2022-09-09T01:30:40;13.33;99.99
69823;SHT31;57119;52.516;13.508;2022-09-09T01:33:14;13.23;99.99
69823;SHT31;57119;52.516;13.508;2022-09-09T01:35:45;13.14;99.99
69823;SHT31;57119;52.516;13.508;2022-09-09T01:38:14;13.13;99.99
69823;SHT31;57119;52.516;13.508;2022-09-09T01:40:40;13.21;99.99
69823;SHT31;57119;52.516;13.508;2022-09-09T01:43:05;13.14;99.99
69823;SHT31;57119;52.516;13.508;2022-09-09T01:45:33;13.07;99.99
69823;SHT31;57119;52.516;13.508;2022-09-09T01:47:59;13.02;99.99
69823;SHT31;57119;52.516;13.508;2022-09-09T01:50:25;13.04;99.99
69823;SHT31;57119;52.516;13.508;2022-09-09T01:52:54;13.04;99.99
69823;SHT31;57119;52.516;13.508;2022-09-09T01:55:29;12.97;99.99
69823;SHT31;57119;52.516;13.508;2022-09-09T01:58:29;13.02;99.99
69823;SHT31;57119;52.516;13.508;2022-09-09T02:01:18;12.85;99.99
69823;SHT31;57119;52.516;13.508;2022-09-09T02:03:51;12.87;99.99
69823;SHT31;57119;52.516;13.508;2022-09-09T02:08:56;12.80;99.99
69823;SHT31;57119;52.516;13.508;2022-09-09T02:11:24;12.75;99.99
69823;SHT31;57119;52.516;13.508;2022-09-09T02:13:57;12.86;99.99
69823;SHT31;57119;52.516;13.508;2022-09-09T02:16:34;13.03;99.99
69823;SHT31;57119;52.516;13.508;2022-09-09T02:19:17;13.02;99.99
69823;SHT31;57119;52.516;13.508;2022-09-09T02:21:49;13.18;99.99
69823;SHT31;57119;52.516;13.508;2022-09-09T02:24:15;13.13;99.99
69823;SHT31;57119;52.516;13.508;2022-09-09T02:26:42;13.02;99.99
69823;SHT31;57119;52.516;13.508;2022-09-09T02:29:16;12.92;99.99
69823;SHT31;57119;52.516;13.508;2022-09-09T02:31:45;12.86;99.99
69823;SHT31;57119;52.516;13.508;2022-09-09T02:34:13;12.76;99.99
69823;SHT31;57119;52.516;13.508;2022-09-09T02:36:42;12.79;99.99
69823;SHT31;57119;52.516;13.508;2022-09-09T02:39:09;12.72;99.99
69823;SHT31;57119;52.516;13.508;2022-09-09T02:41:38;12.63;99.99
69823;SHT31;57119;52.516;13.508;2022-09-09T02:44:11;12.63;99.99
69823;SHT31;57119;52.516;13.508;2022-09-09T02:52:45;12.66;99.99
69823;SHT31;57119;52.516;13.508;2022-09-09T02:55:20;12.82;99.99
69823;SHT31;57119;52.516;13.508;2022-09-09T02:57:49;12.75;99.99
69823;SHT31;57119;52.516;13.508;2022-09-09T03:00:15;12.72;99.99
69823;SHT31;57119;52.516;13.508;2022-09-09T03:02:41;12.65;99.99
69823;SHT31;57119;52.516;13.508;2022-09-09T03:05:07;12.55;99.99
69823;SHT31;57119;52.516;13.508;2022-09-09T03:07:32;12.56;99.99
69823;SHT31;57119;52.516;13.508;2022-09-09T03:09:58;12.50;99.99
69823;SHT31;57119;52.516;13.508;2022-09-09T03:12:24;12.50;99.99
69823;SHT31;57119;52.516;13.508;2022-09-09T03:14:49;12.50;99.99
69823;SHT31;57119;52.516;13.508;2022-09-09T03:17:15;12.52;99.99
69823;SHT31;57119;52.516;13.508;2022-09-09T03:19:40;12.66;99.99
69823;SHT31;57119;52.516;13.508;2022-09-09T03:22:06;12.59;99.99
69823;SHT31;57119;52.516;13.508;2022-09-09T03:24:31;12.59;99.99
69823;SHT31;57119;52.516;13.508;2022-09-09T03:26:57;12.72;99.99
69823;SHT31;57119;52.516;13.508;2022-09-09T03:29:22;12.62;99.99
69823;SHT31;57119;52.516;13.508;2022-09-09T03:31:47;12.67;99.99
69823;SHT31;57119;52.516;13.508;2022-09-09T03:34:13;12.52;99.99
69823;SHT31;57119;52.516;13.508;2022-09-09T03:36:39;12.45;99.99
69823;SHT31;57119;52.516;13.508;2022-09-09T03:39:06;12.42;99.99
69823;SHT31;57119;52.516;13.508;2022-09-09T03:41:31;12.44;99.99
69823;SHT31;57119;52.516;13.508;2022-09-09T03:43:57;12.41;99.99
69823;SHT31;57119;52.516;13.508;2022-09-09T03:46:24;12.39;99.99
69823;SHT31;57119;52.516;13.508;2022-09-09T03:48:50;12.32;99.99
69823;SHT31;57119;52.516;13.508;2022-09-09T03:51:17;12.32;99.99
69823;SHT31;57119;52.516;13.508;2022-09-09T03:53:43;12.35;99.99
69823;SHT31;57119;52.516;13.508;2022-09-09T03:56:09;12.32;99.99
69823;SHT31;57119;52.516;13.508;2022-09-09T03:58:35;12.28;99.99
69823;SHT31;57119;52.516;13.508;2022-09-09T04:01:08;12.20;99.99
69823;SHT31;57119;52.516;13.508;2022-09-09T04:03:34;12.16;99.99
69823;SHT31;57119;52.516;13.508;2022-09-09T04:06:01;12.17;99.99
69823;SHT31;57119;52.516;13.508;2022-09-09T04:08:29;12.16;99.99
69823;SHT31;57119;52.516;13.508;2022-09-09T04:10:56;12.18;99.99
69823;SHT31;57119;52.516;13.508;2022-09-09T04:13:23;12.05;99.99
69823;SHT31;57119;52.516;13.508;2022-09-09T04:15:56;12.10;99.99
69823;SHT31;57119;52.516;13.508;2022-09-09T04:18:22;12.18;99.99
69823;SHT31;57119;52.516;13.508;2022-09-09T04:20:48;12.07;99.99
69823;SHT31;57119;52.516;13.508;2022-09-09T04:23:14;12.07;99.99
69823;SHT31;57119;52.516;13.508;2022-09-09T04:25:51;12.07;99.99
69823;SHT31;57119;52.516;13.508;2022-09-09T04:28:18;12.08;99.99
69823;SHT31;57119;52.516;13.508;2022-09-09T04:30:44;12.05;99.99
69823;SHT31;57119;52.516;13.508;2022-09-09T04:33:11;12.01;99.99
69823;SHT31;57119;52.516;13.508;2022-09-09T04:35:36;11.98;99.99
69823;SHT31;57119;52.516;13.508;2022-09-09T04:38:02;12.11;99.99
69823;SHT31;57119;52.516;13.508;2022-09-09T04:40:29;12.11;99.99
69823;SHT31;57119;52.516;13.508;2022-09-09T04:42:57;12.07;99.99
69823;SHT31;57119;52.516;13.508;2022-09-09T04:45:23;12.04;99.99
69823;SHT31;57119;52.516;13.508;2022-09-09T04:47:48;12.13;99.99
69823;SHT31;57119;52.516;13.508;2022-09-09T04:50:14;12.16;99.99
69823;SHT31;57119;52.516;13.508;2022-09-09T04:52:39;12.17;99.99
69823;SHT31;57119;52.516;13.508;2022-09-09T04:55:06;12.18;99.99
69823;SHT31;57119;52.516;13.508;2022-09-09T04:57:32;12.18;99.99
69823;SHT31;57119;52.516;13.508;2022-09-09T04:59:58;12.28;99.99
69823;SHT31;57119;52.516;13.508;2022-09-09T05:02:25;12.35;99.99
69823;SHT31;57119;52.516;13.508;2022-09-09T05:04:51;12.44;99.99
69823;SHT31;57119;52.516;13.508;2022-09-09T05:07:16;12.53;99.99
69823;SHT31;57119;52.516;13.508;2022-09-09T05:09:41;12.58;99.99
69823;SHT31;57119;52.516;13.508;2022-09-09T05:12:06;12.69;99.99
69823;SHT31;57119;52.516;13.508;2022-09-09T05:14:33;12.77;99.99
69823;SHT31;57119;52.516;13.508;2022-09-09T05:16:58;12.83;99.99
69823;SHT31;57119;52.516;13.508;2022-09-09T05:19:24;13.03;99.99
69823;SHT31;57119;52.516;13.508;2022-09-09T05:21:49;13.18;99.99
69823;SHT31;57119;52.516;13.508;2022-09-09T05:24:15;13.25;99.99
69823;SHT31;57119;52.516;13.508;2022-09-09T05:26:40;13.33;99.99
69823;SHT31;57119;52.516;13.508;2022-09-09T05:29:06;13.41;99.99
69823;SHT31;57119;52.516;13.508;2022-09-09T05:31:31;13.47;99.99
69823;SHT31;57119;52.516;13.508;2022-09-09T05:33:57;13.54;99.99
69823;SHT31;57119;52.516;13.508;2022-09-09T05:36:24;13.59;99.99
69823;SHT31;57119;52.516;13.508;2022-09-09T05:38:50;13.68;99.99
69823;SHT31;57119;52.516;13.508;2022-09-09T05:41:16;13.69;99.99
69823;SHT31;57119;52.516;13.508;2022-09-09T05:43:43;13.72;99.99
69823;SHT31;57119;52.516;13.508;2022-09-09T05:46:20;13.76;99.99
69823;SHT31;57119;52.516;13.508;2022-09-09T05:48:47;13.83;99.99
69823;SHT31;57119;52.516;13.508;2022-09-09T05:51:15;13.95;99.99
69823;SHT31;57119;52.516;13.508;2022-09-09T05:53:42;13.98;99.99
69823;SHT31;57119;52.516;13.508;2022-09-09T05:56:11;14.00;99.99
69823;SHT31;57119;52.516;13.508;2022-09-09T05:58:37;14.06;99.99
69823;SHT31;57119;52.516;13.508;2022-09-09T06:01:03;14.16;99.99
69823;SHT31;57119;52.516;13.508;2022-09-09T06:03:29;14.13;99.99
69823;SHT31;57119;52.516;13.508;2022-09-09T06:05:59;14.24;99.99
69823;SHT31;57119;52.516;13.508;2022-09-09T06:08:24;14.36;99.99
69823;SHT31;57119;52.516;13.508;2022-09-09T06:10:50;14.34;99.99
69823;SHT31;57119;52.516;13.508;2022-09-09T06:13:16;14.57;99.99
69823;SHT31;57119;52.516;13.508;2022-09-09T06:15:51;14.82;99.99
69823;SHT31;57119;52.516;13.508;2022-09-09T06:18:18;15.02;99.99
69823;SHT31;57119;52.516;13.508;2022-09-09T06:20:53;15.32;98.44
69823;SHT31;57119;52.516;13.508;2022-09-09T06:23:19;15.46;97.79
69823;SHT31;57119;52.516;13.508;2022-09-09T06:25:45;15.60;98.24
69823;SHT31;57119;52.516;13.508;2022-09-09T06:28:11;16.08;96.67
69823;SHT31;57119;52.516;13.508;2022-09-09T06:30:36;16.34;96.29
69823;SHT31;57119;52.516;13.508;2022-09-09T06:33:02;16.69;94.71
69823;SHT31;57119;52.516;13.508;2022-09-09T06:35:27;16.95;93.15
69823;SHT31;57119;52.516;13.508;2022-09-09T06:37:53;17.08;93.91
69823;SHT31;57119;52.516;13.508;2022-09-09T06:40:19;16.90;92.05
69823;SHT31;57119;52.516;13.508;2022-09-09T06:42:44;17.59;90.73
69823;SHT31;57119;52.516;13.508;2022-09-09T06:45:09;17.93;91.38
69823;SHT31;57119;52.516;13.508;2022-09-09T06:47:35;17.07;90.65
69823;SHT31;57119;52.516;13.508;2022-09-09T06:50:01;17.19;91.69
69823;SHT31;57119;52.516;13.508;2022-09-09T06:52:26;17.65;91.19
69823;SHT31;57119;52.516;13.508;2022-09-09T06:54:52;17.52;90.06
69823;SHT31;57119;52.516;13.508;2022-09-09T06:57:18;17.91;89.61
69823;SHT31;57119;52.516;13.508;2022-09-09T06:59:43;17.85;88.58
69823;SHT31;57119;52.516;13.508;2022-09-09T07:02:09;18.34;89.12
69823;SHT31;57119;52.516;13.508;2022-09-09T07:04:35;18.52;87.46
69823;SHT31;57119;52.516;13.508;2022-09-09T07:07:02;19.17;84.74
69823;SHT31;57119;52.516;13.508;2022-09-09T07:09:27;18.99;85.20
69823;SHT31;57119;52.516;13.508;2022-09-09T07:11:54;19.60;84.37
69823;SHT31;57119;52.516;13.508;2022-09-09T07:14:20;18.73;84.83
69823;SHT31;57119;52.516;13.508;2022-09-09T07:16:47;19.17;83.61
69823;SHT31;57119;52.516;13.508;2022-09-09T07:19:13;19.96;82.19
69823;SHT31;57119;52.516;13.508;2022-09-09T07:21:39;20.20;81.56
69823;SHT31;57119;52.516;13.508;2022-09-09T07:24:08;20.43;80.23
69823;SHT31;57119;52.516;13.508;2022-09-09T07:26:35;20.60;79.18
69823;SHT31;57119;52.516;13.508;2022-09-09T07:29:01;19.86;80.98
69823;SHT31;57119;52.516;13.508;2022-09-09T07:31:29;20.44;80.55
69823;SHT31;57119;52.516;13.508;2022-09-09T07:33:56;19.89;81.63
69823;SHT31;57119;52.516;13.508;2022-09-09T07:36:27;20.94;78.08
69823;SHT31;57119;52.516;13.508;2022-09-09T07:38:55;21.02;77.09
69823;SHT31;57119;52.516;13.508;2022-09-09T07:41:24;21.50;75.80
69823;SHT31;57119;52.516;13.508;2022-09-09T07:43:50;22.25;75.20
69823;SHT31;57119;52.516;13.508;2022-09-09T07:46:17;22.76;72.62
69823;SHT31;57119;52.516;13.508;2022-09-09T07:48:45;23.07;71.98
69823;SHT31;57119;52.516;13.508;2022-09-09T07:51:13;22.21;72.41
69823;SHT31;57119;52.516;13.508;2022-09-09T07:53:42;22.10;73.57
69823;SHT31;57119;52.516;13.508;2022-09-09T07:56:10;22.27;72.21
69823;SHT31;57119;52.516;13.508;2022-09-09T07:58:37;22.77;71.78
69823;SHT31;57119;52.516;13.508;2022-09-09T08:01:11;23.62;67.93
69823;SHT31;57119;52.516;13.508;2022-09-09T08:03:37;23.81;67.83
69823;SHT31;57119;52.516;13.508;2022-09-09T08:06:07;24.12;66.48
69823;SHT31;57119;52.516;13.508;2022-09-09T08:08:35;24.14;67.27
69823;SHT31;57119;52.516;13.508;2022-09-09T08:11:09;23.90;66.47
69823;SHT31;57119;52.516;13.508;2022-09-09T08:13:36;23.89;67.02
69823;SHT31;57119;52.516;13.508;2022-09-09T08:16:12;24.41;66.47
69823;SHT31;57119;52.516;13.508;2022-09-09T08:18:39;24.84;66.78
69823;SHT31;57119;52.516;13.508;2022-09-09T08:21:09;24.82;63.87
69823;SHT31;57119;52.516;13.508;2022-09-09T08:23:37;25.22;62.40
69823;SHT31;57119;52.516;13.508;2022-09-09T08:26:07;24.06;66.31
69823;SHT31;57119;52.516;13.508;2022-09-09T08:28:34;24.21;65.89
69823;SHT31;57119;52.516;13.508;2022-09-09T08:31:13;23.17;67.84
69823;SHT31;57119;52.516;13.508;2022-09-09T08:33:39;22.55;70.13
69823;SHT31;57119;52.516;13.508;2022-09-09T08:36:08;21.98;72.41
69823;SHT31;57119;52.516;13.508;2022-09-09T08:38:34;22.34;71.86
69823;SHT31;57119;52.516;13.508;2022-09-09T08:44:07;21.33;74.14
69823;SHT31;57119;52.516;13.508;2022-09-09T08:46:46;21.36;75.21
69823;SHT31;57119;52.516;13.508;2022-09-09T08:51:57;20.80;75.41
69823;SHT31;57119;52.516;13.508;2022-09-09T08:54:23;20.75;75.87
69823;SHT31;57119;52.516;13.508;2022-09-09T08:56:50;20.70;76.66
69823;SHT31;57119;52.516;13.508;2022-09-09T08:59:17;20.50;76.53
69823;SHT31;57119;52.516;13.508;2022-09-09T09:02:24;20.65;76.36
69823;SHT31;57119;52.516;13.508;2022-09-09T09:04:58;20.43;77.22
69823;SHT31;57119;52.516;13.508;2022-09-09T09:12:39;22.01;72.61
69823;SHT31;57119;52.516;13.508;2022-09-09T09:15:21;23.13;69.38
69823;SHT31;57119;52.516;13.508;2022-09-09T09:17:48;24.48;67.50
69823;SHT31;57119;52.516;13.508;2022-09-09T09:20:16;24.09;66.80
69823;SHT31;57119;52.516;13.508;2022-09-09T09:22:48;24.17;67.03
69823;SHT31;57119;52.516;13.508;2022-09-09T09:25:27;24.98;64.63
69823;SHT31;57119;52.516;13.508;2022-09-09T09:28:19;25.36;63.87
69823;SHT31;57119;52.516;13.508;2022-09-09T09:31:06;26.01;61.93
69823;SHT31;57119;52.516;13.508;2022-09-09T09:36:07;26.96;58.75
69823;SHT31;57119;52.516;13.508;2022-09-09T09:38:34;26.70;58.55
69823;SHT31;57119;52.516;13.508;2022-09-09T09:41:00;26.87;57.21
69823;SHT31;57119;52.516;13.508;2022-09-09T09:45:53;25.83;60.04
69823;SHT31;57119;52.516;13.508;2022-09-09T09:48:18;25.56;60.55
69823;SHT31;57119;52.516;13.508;2022-09-09T09:53:23;28.95;53.95
69823;SHT31;57119;52.516;13.508;2022-09-09T09:56:04;28.14;55.58
69823;SHT31;57119;52.516;13.508;2022-09-09T09:58:31;28.96;53.55
69823;SHT31;57119;52.516;13.508;2022-09-09T10:00:59;28.41;54.58
69823;SHT31;57119;52.516;13.508;2022-09-09T10:03:31;29.42;53.72
69823;SHT31;57119;52.516;13.508;2022-09-09T10:05:57;29.05;52.99
69823;SHT31;57119;52.516;13.508;2022-09-09T10:08:24;29.09;53.59
69823;SHT31;57119;52.516;13.508;2022-09-09T10:14:19;31.12;48.76
69823;SHT31;57119;52.516;13.508;2022-09-09T10:16:57;29.29;53.41
69823;SHT31;57119;52.516;13.508;2022-09-09T10:19:33;29.80;51.90
69823;SHT31;57119;52.516;13.508;2022-09-09T10:22:03;30.08;50.70
69823;SHT31;57119;52.516;13.508;2022-09-09T10:33:10;27.99;53.96
69823;SHT31;57119;52.516;13.508;2022-09-09T10:52:04;26.64;57.43
69823;SHT31;57119;52.516;13.508;2022-09-09T10:54:50;26.31;58.88
69823;SHT31;57119;52.516;13.508;2022-09-09T11:00:39;25.45;61.26
69823;SHT31;57119;52.516;13.508;2022-09-09T11:03:06;25.85;59.62
69823;SHT31;57119;52.516;13.508;2022-09-09T11:05:43;27.90;56.02
69823;SHT31;57119;52.516;13.508;2022-09-09T11:08:13;27.61;55.85
69823;SHT31;57119;52.516;13.508;2022-09-09T11:10:51;30.35;50.57
69823;SHT31;57119;52.516;13.508;2022-09-09T11:13:46;30.35;50.75
69823;SHT31;57119;52.516;13.508;2022-09-09T11:18:46;31.63;47.82
69823;SHT31;57119;52.516;13.508;2022-09-09T11:21:31;31.02;49.75
69823;SHT31;57119;52.516;13.508;2022-09-09T11:24:03;32.19;47.12
69823;SHT31;57119;52.516;13.508;2022-09-09T11:26:33;32.16;47.63
69823;SHT31;57119;52.516;13.508;2022-09-09T11:29:22;33.16;45.39
69823;SHT31;57119;52.516;13.508;2022-09-09T11:44:39;31.18;48.25
69823;SHT31;57119;52.516;13.508;2022-09-09T11:47:37;32.13;46.36
69823;SHT31;57119;52.516;13.508;2022-09-09T11:52:44;32.21;46.00
69823;SHT31;57119;52.516;13.508;2022-09-09T11:55:33;33.73;45.63
69823;SHT31;57119;52.516;13.508;2022-09-09T11:58:04;32.78;44.93
69823;SHT31;57119;52.516;13.508;2022-09-09T12:03:03;27.51;54.72
69823;SHT31;57119;52.516;13.508;2022-09-09T12:05:42;27.34;55.74
69823;SHT31;57119;52.516;13.508;2022-09-09T12:08:11;27.82;53.86
69823;SHT31;57119;52.516;13.508;2022-09-09T12:10:40;28.99;51.19
69823;SHT31;57119;52.516;13.508;2022-09-09T12:13:23;28.79;51.11
69823;SHT31;57119;52.516;13.508;2022-09-09T12:15:54;28.65;52.45
69823;SHT31;57119;52.516;13.508;2022-09-09T12:18:37;31.94;47.54
69823;SHT31;57119;52.516;13.508;2022-09-09T12:23:58;32.17;45.55
69823;SHT31;57119;52.516;13.508;2022-09-09T12:26:39;32.14;46.73
69823;SHT31;57119;52.516;13.508;2022-09-09T12:32:02;32.05;45.68
69823;SHT31;57119;52.516;13.508;2022-09-09T12:35:14;31.06;47.72
69823;SHT31;57119;52.516;13.508;2022-09-09T12:37:53;29.98;49.09
69823;SHT31;57119;52.516;13.508;2022-09-09T12:40:25;28.79;50.19
69823;SHT31;57119;52.516;13.508;2022-09-09T12:42:51;29.49;49.72
69823;SHT31;57119;52.516;13.508;2022-09-09T12:45:22;28.71;50.55
69823;SHT31;57119;52.516;13.508;2022-09-09T12:47:54;28.10;51.67
69823;SHT31;57119;52.516;13.508;2022-09-09T12:50:26;27.69;53.23
69823;SHT31;57119;52.516;13.508;2022-09-09T12:52:55;26.84;55.08
69823;SHT31;57119;52.516;13.508;2022-09-09T12:55:25;26.38;55.66
69823;SHT31;57119;52.516;13.508;2022-09-09T12:57:53;26.12;57.25
69823;SHT31;57119;52.516;13.508;2022-09-09T13:00:24;26.32;55.90
69823;SHT31;57119;52.516;13.508;2022-09-09T13:02:53;25.30;57.26
69823;SHT31;57119;52.516;13.508;2022-09-09T13:05:34;24.89;58.11
69823;SHT31;57119;52.516;13.508;2022-09-09T13:08:02;24.48;58.39
69823;SHT31;57119;52.516;13.508;2022-09-09T13:10:30;24.64;59.34
69823;SHT31;57119;52.516;13.508;2022-09-09T13:12:56;24.64;58.34
69823;SHT31;57119;52.516;13.508;2022-09-09T13:15:24;24.43;58.48
69823;SHT31;57119;52.516;13.508;2022-09-09T13:17:57;24.27;59.06
69823;SHT31;57119;52.516;13.508;2022-09-09T13:20:26;24.31;59.85
69823;SHT31;57119;52.516;13.508;2022-09-09T13:22:53;24.27;60.06
69823;SHT31;57119;52.516;13.508;2022-09-09T13:25:27;24.63;58.49
69823;SHT31;57119;52.516;13.508;2022-09-09T13:28:03;24.77;59.75
69823;SHT31;57119;52.516;13.508;2022-09-09T13:30:34;24.57;59.39
69823;SHT31;57119;52.516;13.508;2022-09-09T13:35:47;25.91;56.52
69823;SHT31;57119;52.516;13.508;2022-09-09T13:38:15;25.98;55.90
69823;SHT31;57119;52.516;13.508;2022-09-09T13:40:40;25.66;56.73
69823;SHT31;57119;52.516;13.508;2022-09-09T13:43:18;25.51;56.76
69823;SHT31;57119;52.516;13.508;2022-09-09T13:45:53;24.79;58.56
69823;SHT31;57119;52.516;13.508;2022-09-09T13:48:19;24.46;59.33
69823;SHT31;57119;52.516;13.508;2022-09-09T13:50:54;24.58;59.11
69823;SHT31;57119;52.516;13.508;2022-09-09T13:53:19;25.56;57.26
69823;SHT31;57119;52.516;13.508;2022-09-09T13:55:44;28.98;51.32
69823;SHT31;57119;52.516;13.508;2022-09-09T13:58:15;31.61;46.72
69823;SHT31;57119;52.516;13.508;2022-09-09T14:00:41;30.16;49.36
69823;SHT31;57119;52.516;13.508;2022-09-09T14:03:06;28.76;50.01
69823;SHT31;57119;52.516;13.508;2022-09-09T14:05:32;26.84;54.34
69823;SHT31;57119;52.516;13.508;2022-09-09T14:07:58;26.42;55.29
69823;SHT31;57119;52.516;13.508;2022-09-09T14:10:25;25.09;58.06
69823;SHT31;57119;52.516;13.508;2022-09-09T14:12:51;24.57;58.98
69823;SHT31;57119;52.516;13.508;2022-09-09T14:15:16;24.48;60.11
69823;SHT31;57119;52.516;13.508;2022-09-09T14:17:42;24.41;60.94
69823;SHT31;57119;52.516;13.508;2022-09-09T14:20:08;23.92;61.06
69823;SHT31;57119;52.516;13.508;2022-09-09T14:22:33;24.40;60.70
69823;SHT31;57119;52.516;13.508;2022-09-09T14:24:59;24.12;61.86
69823;SHT31;57119;52.516;13.508;2022-09-09T14:27:24;24.58;60.69
69823;SHT31;57119;52.516;13.508;2022-09-09T14:29:51;24.79;60.13
69823;SHT31;57119;52.516;13.508;2022-09-09T14:32:17;24.78;60.05
69823;SHT31;57119;52.516;13.508;2022-09-09T14:34:42;24.78;60.36
69823;SHT31;57119;52.516;13.508;2022-09-09T14:37:07;24.63;60.85
69823;SHT31;57119;52.516;13.508;2022-09-09T14:39:33;25.19;61.92
69823;SHT31;57119;52.516;13.508;2022-09-09T14:41:58;26.87;59.37
69823;SHT31;57119;52.516;13.508;2022-09-09T14:44:23;28.67;54.66
69823;SHT31;57119;52.516;13.508;2022-09-09T14:46:49;27.62;54.73
69823;SHT31;57119;52.516;13.508;2022-09-09T14:49:15;29.08;52.83
69823;SHT31;57119;52.516;13.508;2022-09-09T14:51:40;29.78;49.76
69823;SHT31;57119;52.516;13.508;2022-09-09T14:54:06;28.85;51.75
69823;SHT31;57119;52.516;13.508;2022-09-09T14:56:32;27.18;54.82
69823;SHT31;57119;52.516;13.508;2022-09-09T14:59:00;26.22;56.14
69823;SHT31;57119;52.516;13.508;2022-09-09T15:01:29;25.25;58.53
69823;SHT31;57119;52.516;13.508;2022-09-09T15:03:57;24.41;61.54
69823;SHT31;57119;52.516;13.508;2022-09-09T15:06:24;24.06;61.91
69823;SHT31;57119;52.516;13.508;2022-09-09T15:08:51;24.17;62.45
69823;SHT31;57119;52.516;13.508;2022-09-09T15:11:17;23.90;63.32
69823;SHT31;57119;52.516;13.508;2022-09-09T15:13:43;23.69;63.47
69823;SHT31;57119;52.516;13.508;2022-09-09T15:16:10;23.79;63.25
69823;SHT31;57119;52.516;13.508;2022-09-09T15:18:36;23.78;63.18
69823;SHT31;57119;52.516;13.508;2022-09-09T15:21:05;23.86;62.49
69823;SHT31;57119;52.516;13.508;2022-09-09T15:23:32;25.71;57.62
69823;SHT31;57119;52.516;13.508;2022-09-09T15:25:57;25.57;58.46
69823;SHT31;57119;52.516;13.508;2022-09-09T15:28:23;26.46;56.64
69823;SHT31;57119;52.516;13.508;2022-09-09T15:30:49;26.91;55.48
69823;SHT31;57119;52.516;13.508;2022-09-09T15:33:15;29.39;50.94
69823;SHT31;57119;52.516;13.508;2022-09-09T15:35:41;29.02;51.55
69823;SHT31;57119;52.516;13.508;2022-09-09T15:38:06;29.76;50.00
69823;SHT31;57119;52.516;13.508;2022-09-09T15:40:31;28.04;51.98
69823;SHT31;57119;52.516;13.508;2022-09-09T15:42:59;27.92;51.84
69823;SHT31;57119;52.516;13.508;2022-09-09T15:45:25;27.70;51.94
69823;SHT31;57119;52.516;13.508;2022-09-09T15:47:51;26.72;53.14
69823;SHT31;57119;52.516;13.508;2022-09-09T15:50:17;25.74;57.24
69823;SHT31;57119;52.516;13.508;2022-09-09T15:52:42;26.33;52.58
69823;SHT31;57119;52.516;13.508;2022-09-09T15:55:08;26.31;52.09
69823;SHT31;57119;52.516;13.508;2022-09-09T15:57:34;27.48;51.12
69823;SHT31;57119;52.516;13.508;2022-09-09T16:00:00;29.27;49.29
69823;SHT31;57119;52.516;13.508;2022-09-09T16:02:25;28.78;48.47
69823;SHT31;57119;52.516;13.508;2022-09-09T16:04:50;28.12;49.61
69823;SHT31;57119;52.516;13.508;2022-09-09T16:07:16;29.15;50.12
69823;SHT31;57119;52.516;13.508;2022-09-09T16:09:41;29.10;49.95
69823;SHT31;57119;52.516;13.508;2022-09-09T16:12:09;29.26;51.86
69823;SHT31;57119;52.516;13.508;2022-09-09T16:14:37;27.83;51.81
69823;SHT31;57119;52.516;13.508;2022-09-09T16:17:05;26.68;54.09
69823;SHT31;57119;52.516;13.508;2022-09-09T16:19:31;25.64;56.39
69823;SHT31;57119;52.516;13.508;2022-09-09T16:21:57;24.94;60.69
69823;SHT31;57119;52.516;13.508;2022-09-09T16:24:22;24.47;60.49
69823;SHT31;57119;52.516;13.508;2022-09-09T16:26:53;23.72;60.59
69823;SHT31;57119;52.516;13.508;2022-09-09T16:29:20;23.52;65.22
69823;SHT31;57119;52.516;13.508;2022-09-09T16:31:47;23.20;62.76
69823;SHT31;57119;52.516;13.508;2022-09-09T16:34:13;22.99;64.94
69823;SHT31;57119;52.516;13.508;2022-09-09T16:36:40;22.67;64.32
69823;SHT31;57119;52.516;13.508;2022-09-09T16:39:08;22.52;64.55
69823;SHT31;57119;52.516;13.508;2022-09-09T16:41:34;22.29;65.58
69823;SHT31;57119;52.516;13.508;2022-09-09T16:44:03;22.24;67.97
69823;SHT31;57119;52.516;13.508;2022-09-09T16:46:30;21.83;70.22
69823;SHT31;57119;52.516;13.508;2022-09-09T16:48:56;21.77;70.88
69823;SHT31;57119;52.516;13.508;2022-09-09T16:51:26;21.53;72.21
69823;SHT31;57119;52.516;13.508;2022-09-09T16:53:52;21.28;73.29
69823;SHT31;57119;52.516;13.508;2022-09-09T16:56:24;21.01;73.95
69823;SHT31;57119;52.516;13.508;2022-09-09T16:59:17;20.80;74.86
69823;SHT31;57119;52.516;13.508;2022-09-09T17:01:44;20.57;76.28
69823;SHT31;57119;52.516;13.508;2022-09-09T17:04:14;20.60;77.25
69823;SHT31;57119;52.516;13.508;2022-09-09T17:06:42;20.47;76.89
69823;SHT31;57119;52.516;13.508;2022-09-09T17:09:10;20.39;76.79
69823;SHT31;57119;52.516;13.508;2022-09-09T17:11:39;20.39;76.82
69823;SHT31;57119;52.516;13.508;2022-09-09T17:14:06;20.09;74.44
69823;SHT31;57119;52.516;13.508;2022-09-09T17:16:32;20.05;72.60
69823;SHT31;57119;52.516;13.508;2022-09-09T17:19:03;19.83;69.54
69823;SHT31;57119;52.516;13.508;2022-09-09T17:21:29;19.65;69.92
69823;SHT31;57119;52.516;13.508;2022-09-09T17:23:56;19.58;70.16